Shirahamamaru — JG4872 — position and weather

sailwx.info

Track history (hours):
 
Tides and Currents Weather Stations Pressure Air Temp Water Temp Dewpoint Dewpoint Depression Visibility Wind Speed Wind Dir Waves Ship Positions

Shirahamamaru

Last reported at 2014-Oct-25 10:33 UTC. Time now 2014-Oct-25 11:57 UTC.
Position N 35°13' E 139°46'.

Length 79 m; draft 3.2 m.

Type: Passenger vessel. MMSI: 431000239.

Date/timePositionNaut miles runAvg speedWind from/ knotsBaromVisibWave heightAir tempDewpointWater temp
2014-Oct-25 10:33N 35°13' E 139°46'3 2.7
2014-Oct-25 09:32N 35°11' E 139°48'5 4.8
2014-Oct-25 08:31N 35°13' E 139°43'5 5.7
2014-Oct-25 07:33N 35°10' E 139°49'6 5.0
2014-Oct-25 06:27N 35°13' E 139°43'5 4.8
2014-Oct-25 05:29N 35°11' E 139°48'5 4.1
2014-Oct-25 04:23N 35°13' E 139°43'5 5.9
2014-Oct-25 03:32N 35°11' E 139°48'5 4.7
2014-Oct-25 02:30N 35°13' E 139°43'5 4.9
2014-Oct-25 01:33N 35°11' E 139°48'5 4.4
2014-Oct-25 00:31N 35°13' E 139°43'2 2.6
2014-Oct-24 23:33N 35°12' E 139°46'1 1.4
2014-Oct-24 22:32N 35°13' E 139°44'2 2.3
2014-Oct-24 21:34N 35°12' E 139°47'1 0.1
2014-Oct-24 10:31N 35°12' E 139°45'3 2.7
2014-Oct-24 09:33N 35°11' E 139°48'5 4.4
2014-Oct-24 08:31N 35°13' E 139°43'6 5.9
2014-Oct-24 07:33N 35°10' E 139°49'6 5.2
2014-Oct-24 06:26N 35°13' E 139°43'5 5.2
2014-Oct-24 05:26N 35°11' E 139°48'4 4.4
2014-Oct-24 04:31N 35°13' E 139°44'4 3.9
2014-Oct-24 03:33N 35°11' E 139°48'5 4.4
2014-Oct-24 02:29N 35°13' E 139°43'6 5.7
2014-Oct-24 01:28N 35°10' E 139°49'6 5.9
2014-Oct-24 00:31N 35°13' E 139°43'3 2.9
2014-Oct-23 23:33N 35°12' E 139°46'2 1.6
2014-Oct-23 22:32N 35°13' E 139°44'3 2.7
2014-Oct-23 21:33N 35°11' E 139°47'2 0.1
2014-Oct-23 10:31N 35°12' E 139°45'3 2.6
2014-Oct-23 09:33N 35°11' E 139°48'5 4.6
2014-Oct-23 08:32N 35°13' E 139°43'6 5.8
2014-Oct-23 07:32N 35°10' E 139°49'6 5.6
2014-Oct-23 06:32N 35°13' E 139°43'4 3.8
2014-Oct-23 05:32N 35°11' E 139°47'3 2.9
2014-Oct-23 04:32N 35°13' E 139°44'4 3.7
2014-Oct-23 03:33N 35°11' E 139°48'5 4.7
2014-Oct-23 02:33N 35°13' E 139°43'5 4.9
2014-Oct-23 01:33N 35°11' E 139°48'5 4.5
2014-Oct-23 00:29N 35°13' E 139°43'3 3.1
2014-Oct-22 23:34N 35°12' E 139°46'1 1.5
2014-Oct-22 22:33N 35°13' E 139°45'3 2.7
2014-Oct-22 21:32N 35°11' E 139°47'3 0.3
2014-Oct-22 10:28N 35°13' E 139°44'4 3.9
2014-Oct-22 09:33N 35°11' E 139°48'5 4.1
2014-Oct-22 08:24N 35°13' E 139°43'6 6.7
2014-Oct-22 07:33N 35°10' E 139°49'6 5.0
2014-Oct-22 06:25N 35°13' E 139°43'4 4.4
2014-Oct-22 05:33N 35°11' E 139°47'3 2.5
2014-Oct-22 04:31N 35°13' E 139°44'4 3.9
2014-Oct-22 03:33N 35°11' E 139°48'5 4.2
2014-Oct-22 02:22N 35°13' E 139°43'5 5.9
2014-Oct-22 01:32N 35°11' E 139°48'5 4.6
2014-Oct-22 00:28N 35°13' E 139°43'3 3.0
2014-Oct-21 23:33N 35°12' E 139°46'1 1.0
2014-Oct-21 22:33N 35°13' E 139°45'2 1.9
2014-Oct-21 21:33N 35°12' E 139°47'2 0.1
2014-Oct-21 10:30N 35°13' E 139°45'3 2.7
2014-Oct-21 09:33N 35°11' E 139°48'5 4.4
2014-Oct-21 08:30N 35°13' E 139°43'6 6.0
2014-Oct-21 07:33N 35°10' E 139°49'6 5.1
2014-Oct-21 06:25N 35°13' E 139°43'4 4.6
2014-Oct-21 05:31N 35°11' E 139°47'3 3.2
2014-Oct-21 04:28N 35°13' E 139°44'4 4.3
2014-Oct-21 03:33N 35°11' E 139°48'4 4.4
2014-Oct-21 02:32N 35°13' E 139°43'4 4.6
2014-Oct-21 01:33N 35°11' E 139°48'5 4.3
2014-Oct-21 00:26N 35°13' E 139°43'3 3.4
2014-Oct-20 23:33N 35°12' E 139°46'2 1.7
2014-Oct-20 22:32N 35°13' E 139°44'3 2.8
2014-Oct-20 21:32N 35°11' E 139°47'2 0.2
2014-Oct-20 10:32N 35°12' E 139°45'3 2.8
2014-Oct-20 09:33N 35°11' E 139°48'5 4.5
2014-Oct-20 08:28N 35°13' E 139°43'6 6.2
2014-Oct-20 07:32N 35°10' E 139°49'6 5.3
2014-Oct-20 06:27N 35°13' E 139°43'4 4.3
2014-Oct-20 05:33N 35°11' E 139°47'4 3.2
2014-Oct-20 04:26N 35°13' E 139°43'5 5.2
2014-Oct-20 03:32N 35°11' E 139°48'5 4.5
2014-Oct-20 02:27N 35°13' E 139°43'5 5.6
2014-Oct-20 01:33N 35°11' E 139°48'5 4.8
2014-Oct-20 00:30N 35°13' E 139°43'3 3.1
2014-Oct-19 23:34N 35°12' E 139°46'1 1.5
2014-Oct-19 22:33N 35°13' E 139°44'3 2.5
2014-Oct-19 21:33N 35°11' E 139°47'1 0.1
2014-Oct-19 10:33N 35°12' E 139°46'2 2.3
2014-Oct-19 09:33N 35°11' E 139°48'5 4.4
2014-Oct-19 08:29N 35°13' E 139°43'6 6.4
2014-Oct-19 07:33N 35°10' E 139°49'6 5.5
2014-Oct-19 06:30N 35°13' E 139°43'4 3.8
2014-Oct-19 05:33N 35°11' E 139°47'4 3.2
2014-Oct-19 04:27N 35°13' E 139°43'6 6.2
2014-Oct-19 03:33N 35°10' E 139°49'6 5.7
2014-Oct-19 02:32N 35°13' E 139°43'5 5.2
2014-Oct-19 01:32N 35°11' E 139°48'5 5.1
2014-Oct-19 00:30N 35°13' E 139°43'3 3.0
2014-Oct-18 23:33N 35°12' E 139°46'2 1.6
2014-Oct-18 22:32N 35°13' E 139°44'2 2.5
2014-Oct-18 21:33N 35°11' E 139°47'1 0.1
2014-Oct-18 10:33N 35°12' E 139°46'2 2.2
2014-Oct-18 09:33N 35°11' E 139°48'5 4.2
2014-Oct-18 08:25N 35°13' E 139°43'6 6.6
2014-Oct-18 07:32N 35°10' E 139°49'6 5.3
2014-Oct-18 06:26N 35°13' E 139°43'4 4.3
2014-Oct-18 05:33N 35°11' E 139°47'4 3.2
2014-Oct-18 04:26N 35°13' E 139°43'5 5.6
2014-Oct-18 03:32N 35°11' E 139°48'5 4.8
2014-Oct-18 02:29N 35°13' E 139°43'5 5.2
2014-Oct-18 01:33N 35°11' E 139°48'5 4.4
2014-Oct-18 00:26N 35°13' E 139°43'3 3.5
2014-Oct-17 23:32N 35°12' E 139°46'2 2.2
2014-Oct-17 22:30N 35°13' E 139°44'3 3.2
2014-Oct-17 21:32N 35°11' E 139°47'1 0.1
2014-Oct-17 10:32N 35°12' E 139°46'2 2.4
2014-Oct-17 09:33N 35°11' E 139°48'5 4.2
2014-Oct-17 08:25N 35°13' E 139°43'6 6.6
2014-Oct-17 07:33N 35°10' E 139°49'6 4.6
2014-Oct-17 06:17N 35°13' E 139°43'4 5.2
2014-Oct-17 05:33N 35°12' E 139°47'3 2.7
2014-Oct-17 04:31N 35°13' E 139°44'4 3.9
2014-Oct-17 03:33N 35°11' E 139°48'5 4.5
2014-Oct-17 02:31N 35°13' E 139°43'5 5.1
2014-Oct-17 01:32N 35°11' E 139°48'5 4.9
2014-Oct-17 00:31N 35°13' E 139°43'3 2.9
2014-Oct-16 23:33N 35°12' E 139°46'2 1.6
2014-Oct-16 22:33N 35°13' E 139°44'3 2.7
2014-Oct-16 21:33N 35°11' E 139°47'2 0.2
2014-Oct-16 10:33N 35°13' E 139°46'3 2.6
2014-Oct-16 09:33N 35°11' E 139°48'5 4.4
2014-Oct-16 08:28N 35°13' E 139°43'6 6.3
2014-Oct-16 07:33N 35°10' E 139°49'6 5.1
2014-Oct-16 06:24N 35°13' E 139°43'4 4.5
2014-Oct-16 05:33N 35°11' E 139°47'3 2.5
2014-Oct-16 04:32N 35°13' E 139°44'4 3.8
2014-Oct-16 03:32N 35°11' E 139°48'5 4.6
2014-Oct-16 02:27N 35°13' E 139°43'5 5.5
2014-Oct-16 01:34N 35°11' E 139°48'  
Track history (hours):
 
Tides and Currents Weather Stations Pressure Air Temp Water Temp Dewpoint Dewpoint Depression Visibility Wind Speed Wind Dir Waves Ship Positions

Shirahamamaru

Last reported at 2014-Oct-25 10:33 UTC. Time now 2014-Oct-25 11:57 UTC.
Position N 35°13' E 139°46'.

Length 79 m; draft 3.2 m.

Type: Passenger vessel. MMSI: 431000239.

Date/timePositionNaut miles runAvg speedWind from/ knotsBaromVisibWave heightAir tempDewpointWater temp
2014-Oct-25 10:33N 35°13' E 139°46'3 2.7
2014-Oct-25 09:32N 35°11' E 139°48'5 4.8
2014-Oct-25 08:31N 35°13' E 139°43'5 5.7
2014-Oct-25 07:33N 35°10' E 139°49'6 5.0
2014-Oct-25 06:27N 35°13' E 139°43'5 4.8
2014-Oct-25 05:29N 35°11' E 139°48'5 4.1
2014-Oct-25 04:23N 35°13' E 139°43'5 5.9
2014-Oct-25 03:32N 35°11' E 139°48'5 4.7
2014-Oct-25 02:30N 35°13' E 139°43'5 4.9
2014-Oct-25 01:33N 35°11' E 139°48'5 4.4
2014-Oct-25 00:31N 35°13' E 139°43'2 2.6
2014-Oct-24 23:33N 35°12' E 139°46'1 1.4
2014-Oct-24 22:32N 35°13' E 139°44'2 2.3
2014-Oct-24 21:34N 35°12' E 139°47'1 0.1
2014-Oct-24 10:31N 35°12' E 139°45'3 2.7
2014-Oct-24 09:33N 35°11' E 139°48'5 4.4
2014-Oct-24 08:31N 35°13' E 139°43'6 5.9
2014-Oct-24 07:33N 35°10' E 139°49'6 5.2
2014-Oct-24 06:26N 35°13' E 139°43'5 5.2
2014-Oct-24 05:26N 35°11' E 139°48'4 4.4
2014-Oct-24 04:31N 35°13' E 139°44'4 3.9
2014-Oct-24 03:33N 35°11' E 139°48'5 4.4
2014-Oct-24 02:29N 35°13' E 139°43'6 5.7
2014-Oct-24 01:28N 35°10' E 139°49'6 5.9
2014-Oct-24 00:31N 35°13' E 139°43'3 2.9
2014-Oct-23 23:33N 35°12' E 139°46'2 1.6
2014-Oct-23 22:32N 35°13' E 139°44'3 2.7
2014-Oct-23 21:33N 35°11' E 139°47'2 0.1
2014-Oct-23 10:31N 35°12' E 139°45'3 2.6
2014-Oct-23 09:33N 35°11' E 139°48'5 4.6
2014-Oct-23 08:32N 35°13' E 139°43'6 5.8
2014-Oct-23 07:32N 35°10' E 139°49'6 5.6
2014-Oct-23 06:32N 35°13' E 139°43'4 3.8
2014-Oct-23 05:32N 35°11' E 139°47'3 2.9
2014-Oct-23 04:32N 35°13' E 139°44'4 3.7
2014-Oct-23 03:33N 35°11' E 139°48'5 4.7
2014-Oct-23 02:33N 35°13' E 139°43'5 4.9
2014-Oct-23 01:33N 35°11' E 139°48'5 4.5
2014-Oct-23 00:29N 35°13' E 139°43'3 3.1
2014-Oct-22 23:34N 35°12' E 139°46'1 1.5
2014-Oct-22 22:33N 35°13' E 139°45'3 2.7
2014-Oct-22 21:32N 35°11' E 139°47'3 0.3
2014-Oct-22 10:28N 35°13' E 139°44'4 3.9
2014-Oct-22 09:33N 35°11' E 139°48'5 4.1
2014-Oct-22 08:24N 35°13' E 139°43'6 6.7
2014-Oct-22 07:33N 35°10' E 139°49'6 5.0
2014-Oct-22 06:25N 35°13' E 139°43'4 4.4
2014-Oct-22 05:33N 35°11' E 139°47'3 2.5
2014-Oct-22 04:31N 35°13' E 139°44'4 3.9
2014-Oct-22 03:33N 35°11' E 139°48'5 4.2
2014-Oct-22 02:22N 35°13' E 139°43'5 5.9
2014-Oct-22 01:32N 35°11' E 139°48'5 4.6
2014-Oct-22 00:28N 35°13' E 139°43'3 3.0
2014-Oct-21 23:33N 35°12' E 139°46'1 1.0
2014-Oct-21 22:33N 35°13' E 139°45'2 1.9
2014-Oct-21 21:33N 35°12' E 139°47'2 0.1
2014-Oct-21 10:30N 35°13' E 139°45'3 2.7
2014-Oct-21 09:33N 35°11' E 139°48'5 4.4
2014-Oct-21 08:30N 35°13' E 139°43'6 6.0
2014-Oct-21 07:33N 35°10' E 139°49'6 5.1
2014-Oct-21 06:25N 35°13' E 139°43'4 4.6
2014-Oct-21 05:31N 35°11' E 139°47'3 3.2
2014-Oct-21 04:28N 35°13' E 139°44'4 4.3
2014-Oct-21 03:33N 35°11' E 139°48'4 4.4
2014-Oct-21 02:32N 35°13' E 139°43'4 4.6
2014-Oct-21 01:33N 35°11' E 139°48'5 4.3
2014-Oct-21 00:26N 35°13' E 139°43'3 3.4
2014-Oct-20 23:33N 35°12' E 139°46'2 1.7
2014-Oct-20 22:32N 35°13' E 139°44'3 2.8
2014-Oct-20 21:32N 35°11' E 139°47'2 0.2
2014-Oct-20 10:32N 35°12' E 139°45'3 2.8
2014-Oct-20 09:33N 35°11' E 139°48'5 4.5
2014-Oct-20 08:28N 35°13' E 139°43'6 6.2
2014-Oct-20 07:32N 35°10' E 139°49'6 5.3
2014-Oct-20 06:27N 35°13' E 139°43'4 4.3
2014-Oct-20 05:33N 35°11' E 139°47'4 3.2
2014-Oct-20 04:26N 35°13' E 139°43'5 5.2
2014-Oct-20 03:32N 35°11' E 139°48'5 4.5
2014-Oct-20 02:27N 35°13' E 139°43'5 5.6
2014-Oct-20 01:33N 35°11' E 139°48'5 4.8
2014-Oct-20 00:30N 35°13' E 139°43'3 3.1
2014-Oct-19 23:34N 35°12' E 139°46'1 1.5
2014-Oct-19 22:33N 35°13' E 139°44'3 2.5
2014-Oct-19 21:33N 35°11' E 139°47'1 0.1
2014-Oct-19 10:33N 35°12' E 139°46'2 2.3
2014-Oct-19 09:33N 35°11' E 139°48'5 4.4
2014-Oct-19 08:29N 35°13' E 139°43'6 6.4
2014-Oct-19 07:33N 35°10' E 139°49'6 5.5
2014-Oct-19 06:30N 35°13' E 139°43'4 3.8
2014-Oct-19 05:33N 35°11' E 139°47'4 3.2
2014-Oct-19 04:27N 35°13' E 139°43'6 6.2
2014-Oct-19 03:33N 35°10' E 139°49'6 5.7
2014-Oct-19 02:32N 35°13' E 139°43'5 5.2
2014-Oct-19 01:32N 35°11' E 139°48'5 5.1
2014-Oct-19 00:30N 35°13' E 139°43'3 3.0
2014-Oct-18 23:33N 35°12' E 139°46'2 1.6
2014-Oct-18 22:32N 35°13' E 139°44'2 2.5
2014-Oct-18 21:33N 35°11' E 139°47'1 0.1
2014-Oct-18 10:33N 35°12' E 139°46'2 2.2
2014-Oct-18 09:33N 35°11' E 139°48'5 4.2
2014-Oct-18 08:25N 35°13' E 139°43'6 6.6
2014-Oct-18 07:32N 35°10' E 139°49'6 5.3
2014-Oct-18 06:26N 35°13' E 139°43'4 4.3
2014-Oct-18 05:33N 35°11' E 139°47'4 3.2
2014-Oct-18 04:26N 35°13' E 139°43'5 5.6
2014-Oct-18 03:32N 35°11' E 139°48'5 4.8
2014-Oct-18 02:29N 35°13' E 139°43'5 5.2
2014-Oct-18 01:33N 35°11' E 139°48'5 4.4
2014-Oct-18 00:26N 35°13' E 139°43'3 3.5
2014-Oct-17 23:32N 35°12' E 139°46'2 2.2
2014-Oct-17 22:30N 35°13' E 139°44'3 3.2
2014-Oct-17 21:32N 35°11' E 139°47'1 0.1
2014-Oct-17 10:32N 35°12' E 139°46'2 2.4
2014-Oct-17 09:33N 35°11' E 139°48'5 4.2
2014-Oct-17 08:25N 35°13' E 139°43'6 6.6
2014-Oct-17 07:33N 35°10' E 139°49'6 4.6
2014-Oct-17 06:17N 35°13' E 139°43'4 5.2
2014-Oct-17 05:33N 35°12' E 139°47'3 2.7
2014-Oct-17 04:31N 35°13' E 139°44'4 3.9
2014-Oct-17 03:33N 35°11' E 139°48'5 4.5
2014-Oct-17 02:31N 35°13' E 139°43'5 5.1
2014-Oct-17 01:32N 35°11' E 139°48'5 4.9
2014-Oct-17 00:31N 35°13' E 139°43'3 2.9
2014-Oct-16 23:33N 35°12' E 139°46'2 1.6
2014-Oct-16 22:33N 35°13' E 139°44'3 2.7
2014-Oct-16 21:33N 35°11' E 139°47'2 0.2
2014-Oct-16 10:33N 35°13' E 139°46'3 2.6
2014-Oct-16 09:33N 35°11' E 139°48'5 4.4
2014-Oct-16 08:28N 35°13' E 139°43'6 6.3
2014-Oct-16 07:33N 35°10' E 139°49'6 5.1
2014-Oct-16 06:24N 35°13' E 139°43'4 4.5
2014-Oct-16 05:33N 35°11' E 139°47'3 2.5
2014-Oct-16 04:32N 35°13' E 139°44'4 3.8
2014-Oct-16 03:32N 35°11' E 139°48'5 4.6
2014-Oct-16 02:27N 35°13' E 139°43'5 5.5
2014-Oct-16 01:34N 35°11' E 139°48'  

Dump ship's entire track history